Plainview, Missouri
Current Conditions -  °F | °C
As of 2:55 PM on Monday 24 Nov 2014 (Local Time) from KIRK Reporting Station
Overcast Overcast  
Wind Chill: -7°   Ceiling: 2800
Heat Index: -1°   Visibility: 10mi
Dew Point: -4°   Wind: 18mph
Humidity: 76%   Direction: 270°W
Pressure: 29.76"   Gusts: 24mph
Location:  39.9265°N, 92.4529°W
Report Text: KIRK 242055Z AUTO 27016G21KT 10SM OVC028 M01/M04 A2976 RMK AO2 PK WND 28028/2001 SLP089 T10061044 53034
Loading
Personal Weather Stations






























Interactive Weather Map New forecast layout! Learn more

10-Day Weather Forecast

Advertisements
Track Severe Weather on mobile